createdAt,value
2019-02-18T00:02:22.181Z,8.53
2019-02-18T00:04:49.908Z,10.57
2019-02-18T00:07:17.569Z,13.37
2019-02-18T00:09:45.185Z,10.53
2019-02-18T00:12:12.935Z,9.30
2019-02-18T00:14:40.733Z,10.20
2019-02-18T00:17:08.366Z,13.87
2019-02-18T00:19:35.981Z,11.33
2019-02-18T00:22:03.953Z,11.43
2019-02-18T00:24:31.624Z,11.00
2019-02-18T00:26:59.316Z,11.80
2019-02-18T00:29:26.970Z,11.67
2019-02-18T00:31:54.605Z,8.90
2019-02-18T00:34:22.260Z,9.13
2019-02-18T00:36:50.000Z,9.20
2019-02-18T00:39:17.616Z,14.63
2019-02-18T00:41:45.264Z,9.40
2019-02-18T00:44:12.932Z,11.10
2019-02-18T00:46:40.618Z,11.60
2019-02-18T00:49:08.267Z,12.47
2019-02-18T00:51:36.005Z,12.57
2019-02-18T00:54:03.973Z,12.67
2019-02-18T00:56:31.597Z,11.93
2019-02-18T00:58:59.213Z,9.77
2019-02-18T01:01:26.926Z,11.37
2019-02-18T01:03:54.563Z,13.73
2019-02-18T01:06:22.188Z,15.27
2019-02-18T01:08:49.852Z,12.87
2019-02-18T01:11:17.494Z,12.57
2019-02-18T01:13:45.310Z,13.00
2019-02-18T01:16:13.085Z,14.83
2019-02-18T01:18:40.707Z,13.40
2019-02-18T01:21:08.409Z,13.53
2019-02-18T01:23:36.058Z,11.57
2019-02-18T01:26:03.702Z,12.03
2019-02-18T01:28:31.324Z,14.47
2019-02-18T01:30:59.040Z,13.27
2019-02-18T01:33:26.705Z,13.00
2019-02-18T01:35:54.328Z,12.63
2019-02-18T01:38:22.017Z,12.77
2019-02-18T01:40:49.552Z,15.57
2019-02-18T01:43:17.175Z,13.70
2019-02-18T01:45:44.850Z,15.10
2019-02-18T01:48:12.524Z,14.47
2019-02-18T01:50:41.196Z,12.97
2019-02-18T01:53:09.005Z,13.70
2019-02-18T01:55:36.640Z,12.97
2019-02-18T01:58:04.252Z,14.67
2019-02-18T02:00:31.915Z,13.57
2019-02-18T02:02:59.727Z,14.73
2019-02-18T02:05:27.337Z,14.70
2019-02-18T02:07:56.668Z,11.80
2019-02-18T02:10:24.992Z,12.97
2019-02-18T02:13:40.228Z,11.30
2019-02-18T02:16:11.436Z,11.70
2019-02-18T02:18:39.084Z,13.43
2019-02-18T02:21:06.759Z,14.40
2019-02-18T02:23:34.384Z,12.03
2019-02-18T02:26:02.291Z,11.57
2019-02-18T02:28:29.940Z,12.57
2019-02-18T02:30:57.554Z,12.17
2019-02-18T02:33:25.266Z,12.57
2019-02-18T02:35:52.959Z,11.00
2019-02-18T02:38:20.839Z,11.77
2019-02-18T02:40:48.529Z,13.30
2019-02-18T02:43:16.149Z,12.67
2019-02-18T02:45:43.818Z,13.27
2019-02-18T02:48:11.483Z,12.33
2019-02-18T02:50:39.096Z,11.63
2019-02-18T02:53:06.803Z,13.23
2019-02-18T02:55:34.436Z,10.90
2019-02-18T02:58:02.214Z,11.57
2019-02-18T03:00:29.875Z,13.93
2019-02-18T03:02:57.497Z,12.27
2019-02-18T03:05:25.498Z,12.53
2019-02-18T03:07:53.098Z,10.97
2019-02-18T03:10:20.825Z,11.93
2019-02-18T03:12:48.528Z,10.80
2019-02-18T03:15:16.244Z,13.50
2019-02-18T03:17:43.873Z,12.03
2019-02-18T03:20:11.789Z,10.40
2019-02-18T03:22:39.445Z,11.17
2019-02-18T03:25:18.031Z,12.33
2019-02-18T03:27:49.331Z,11.63
2019-02-18T03:30:39.609Z,12.57
2019-02-18T03:33:08.954Z,13.50
2019-02-18T03:35:36.674Z,9.27
2019-02-18T03:38:04.324Z,9.70
2019-02-18T03:40:31.940Z,12.67
2019-02-18T03:42:59.556Z,12.37
2019-02-18T03:45:27.305Z,11.90
2019-02-18T03:47:54.922Z,9.23
2019-02-18T03:50:23.019Z,13.10
2019-02-18T03:52:50.680Z,10.07
2019-02-18T03:55:18.301Z,12.70
2019-02-18T03:57:46.052Z,11.50
2019-02-18T04:00:13.668Z,15.67
2019-02-18T04:02:41.309Z,11.03
2019-02-18T04:05:08.972Z,11.90
2019-02-18T04:07:36.695Z,10.23
2019-02-18T04:10:04.364Z,12.63
2019-02-18T04:12:32.020Z,9.47
2019-02-18T04:14:59.702Z,10.07
2019-02-18T04:17:27.787Z,11.57
2019-02-18T04:19:55.469Z,10.30
2019-02-18T04:22:23.145Z,10.93
2019-02-18T04:24:50.865Z,11.70
2019-02-18T04:27:18.508Z,14.43
2019-02-18T04:29:46.148Z,11.53
2019-02-18T04:32:13.797Z,11.37
2019-02-18T04:34:41.417Z,13.10
2019-02-18T04:37:09.046Z,11.83
2019-02-18T04:39:36.728Z,10.83
2019-02-18T04:42:05.462Z,10.17
2019-02-18T04:44:33.082Z,12.10
2019-02-18T04:47:00.742Z,9.30
2019-02-18T04:49:28.339Z,11.77
2019-02-18T04:51:56.052Z,11.67
2019-02-18T04:54:23.707Z,9.77
2019-02-18T04:56:51.341Z,10.97
2019-02-18T04:59:19.040Z,12.83
2019-02-18T05:01:46.677Z,10.23
2019-02-18T05:04:14.405Z,10.20
2019-02-18T05:06:42.056Z,9.43
2019-02-18T05:09:09.684Z,9.70
2019-02-18T05:11:37.336Z,9.63
2019-02-18T05:14:04.972Z,10.73
2019-02-18T05:16:32.644Z,13.43
2019-02-18T05:19:00.375Z,13.57
2019-02-18T05:21:28.018Z,10.70
2019-02-18T05:23:55.749Z,11.43
2019-02-18T05:26:23.364Z,9.60
2019-02-18T05:28:51.057Z,10.37
2019-02-18T05:31:18.681Z,12.40
2019-02-18T05:33:46.388Z,10.27
2019-02-18T05:36:14.032Z,10.33
2019-02-18T05:38:42.672Z,9.13
2019-02-18T05:41:10.324Z,11.00
2019-02-18T05:43:37.849Z,10.13
2019-02-18T05:46:08.369Z,8.40
2019-02-18T05:48:35.081Z,8.37
2019-02-18T05:51:02.774Z,7.90
2019-02-18T05:53:30.981Z,8.30
2019-02-18T05:55:58.601Z,7.73
2019-02-18T05:58:26.275Z,10.73
2019-02-18T06:00:53.908Z,12.60
2019-02-18T06:03:21.578Z,7.43
2019-02-18T06:05:49.221Z,10.53
2019-02-18T06:08:16.953Z,9.40
2019-02-18T06:10:44.643Z,7.40
2019-02-18T06:13:12.256Z,8.53
2019-02-18T06:15:39.891Z,9.77
2019-02-18T06:18:07.530Z,8.53
2019-02-18T06:20:35.173Z,9.70
2019-02-18T06:23:03.342Z,8.77
2019-02-18T06:25:31.026Z,7.40
2019-02-18T06:27:58.709Z,8.30
2019-02-18T06:30:26.337Z,10.87
2019-02-18T06:32:53.932Z,11.87
2019-02-18T06:35:21.819Z,9.93
2019-02-18T06:37:49.559Z,9.57
2019-02-18T06:40:17.181Z,7.53
2019-02-18T06:42:44.860Z,10.20
2019-02-18T06:45:34.872Z,8.43
2019-02-18T06:48:24.928Z,8.83
2019-02-18T06:50:52.505Z,10.37
2019-02-18T06:53:20.114Z,8.90
2019-02-18T06:55:48.010Z,9.17
2019-02-18T06:58:24.544Z,7.63
2019-02-18T07:00:59.734Z,9.37
2019-02-18T07:03:46.852Z,10.93
2019-02-18T07:06:24.137Z,10.60
2019-02-18T07:09:11.266Z,10.37
2019-02-18T07:11:47.484Z,9.87
2019-02-18T07:14:15.117Z,7.90
2019-02-18T07:16:42.740Z,7.73
2019-02-18T07:19:10.411Z,9.43
2019-02-18T07:21:38.112Z,11.13
2019-02-18T07:24:05.780Z,10.17
2019-02-18T07:26:33.423Z,7.93
2019-02-18T07:29:01.876Z,10.27
2019-02-18T07:31:29.587Z,8.43
2019-02-18T07:33:57.237Z,10.00
2019-02-18T07:36:24.952Z,9.67
2019-02-18T07:38:52.669Z,8.50
2019-02-18T07:41:20.313Z,10.40
2019-02-18T07:43:48.013Z,9.70
2019-02-18T07:46:15.654Z,10.73
2019-02-18T07:48:43.273Z,9.13
2019-02-18T07:51:10.942Z,10.40
2019-02-18T07:53:38.591Z,11.03
2019-02-18T07:56:06.318Z,10.20
2019-02-18T07:58:33.934Z,13.43
2019-02-18T08:01:01.703Z,8.40
2019-02-18T08:03:29.468Z,10.53
2019-02-18T08:05:57.097Z,13.10
2019-02-18T08:08:24.720Z,12.10
2019-02-18T08:10:52.348Z,11.93
2019-02-18T08:13:21.350Z,10.57
2019-02-18T08:15:48.975Z,10.87
2019-02-18T08:18:16.620Z,10.40
2019-02-18T08:20:44.299Z,10.87
2019-02-18T08:23:12.003Z,8.93
2019-02-18T08:25:39.712Z,10.50
2019-02-18T08:28:07.389Z,9.60
2019-02-18T08:30:35.028Z,8.63
2019-02-18T08:33:02.693Z,7.67
2019-02-18T08:35:30.472Z,7.63
2019-02-18T08:37:59.204Z,12.70
2019-02-18T08:40:26.900Z,11.93
2019-02-18T08:42:54.512Z,6.53
2019-02-18T08:45:22.176Z,7.37
2019-02-18T08:47:49.947Z,8.07
2019-02-18T08:50:17.600Z,6.47
2019-02-18T08:52:45.220Z,6.97
2019-02-18T08:55:13.019Z,9.40
2019-02-18T08:57:40.660Z,5.33
2019-02-18T09:00:11.440Z,5.40
2019-02-18T09:02:39.232Z,5.97
2019-02-18T09:05:07.128Z,5.70
2019-02-18T09:07:36.015Z,4.67
2019-02-18T09:10:04.109Z,5.67
2019-02-18T09:12:31.753Z,6.03
2019-02-18T09:14:59.388Z,10.33
2019-02-18T09:17:27.253Z,7.20
2019-02-18T09:19:54.880Z,7.67
2019-02-18T09:22:45.124Z,10.37
2019-02-18T09:25:18.602Z,7.20
2019-02-18T09:27:46.472Z,9.83
2019-02-18T09:30:16.572Z,8.00
2019-02-18T09:32:44.337Z,9.27
2019-02-18T09:35:11.993Z,8.80
2019-02-18T09:37:39.644Z,8.20
2019-02-18T09:40:07.381Z,10.27
2019-02-18T09:42:35.088Z,8.77
2019-02-18T09:45:02.765Z,7.77
2019-02-18T09:47:30.540Z,10.00
2019-02-18T09:49:58.201Z,6.93
2019-02-18T09:52:25.880Z,5.03
2019-02-18T09:54:53.592Z,7.73
2019-02-18T09:57:21.232Z,6.27
2019-02-18T09:59:48.925Z,7.27
2019-02-18T10:02:16.550Z,7.77
2019-02-18T10:04:44.914Z,6.80
2019-02-18T10:07:12.546Z,6.17
2019-02-18T10:09:40.199Z,8.50
2019-02-18T10:12:17.763Z,7.17
2019-02-18T10:14:37.569Z,6.57
2019-02-18T10:17:05.320Z,6.13
2019-02-18T10:19:33.008Z,7.23
2019-02-18T10:22:00.692Z,8.63
2019-02-18T10:24:28.255Z,8.07
2019-02-18T10:26:55.960Z,7.07
2019-02-18T10:29:23.746Z,5.50
2019-02-18T10:31:51.643Z,6.27
2019-02-18T10:34:19.296Z,7.07
2019-02-18T10:36:46.979Z,10.33
2019-02-18T10:39:14.652Z,5.43
2019-02-18T10:41:42.496Z,8.57
2019-02-18T10:44:10.132Z,7.07
2019-02-18T10:46:40.618Z,7.93
2019-02-18T10:49:18.904Z,7.43
2019-02-18T10:51:37.926Z,5.57
2019-02-18T10:54:06.003Z,5.10
2019-02-18T10:56:33.756Z,7.70
2019-02-18T10:59:01.427Z,5.20
2019-02-18T11:01:29.380Z,6.23
2019-02-18T11:03:57.041Z,7.30
2019-02-18T11:06:24.677Z,5.67
2019-02-18T11:08:52.373Z,6.57
2019-02-18T11:11:20.022Z,5.33
2019-02-18T11:13:47.645Z,5.83
2019-02-18T11:16:15.301Z,7.33
2019-02-18T11:18:42.927Z,6.00
2019-02-18T11:21:10.892Z,6.13
2019-02-18T11:23:38.552Z,5.93
2019-02-18T11:26:06.191Z,5.23
2019-02-18T11:28:33.985Z,6.73
2019-02-18T11:31:01.631Z,5.53
2019-02-18T11:33:29.581Z,4.67
2019-02-18T11:35:57.594Z,6.07
2019-02-18T11:38:25.237Z,14.67
2019-02-18T11:40:52.836Z,12.03
2019-02-18T11:43:20.461Z,4.43
2019-02-18T11:45:49.157Z,5.03
2019-02-18T11:48:16.777Z,7.43
2019-02-18T11:50:44.437Z,4.13
2019-02-18T11:53:12.213Z,4.93
2019-02-18T11:55:39.913Z,7.03
2019-02-18T11:58:07.682Z,4.17
2019-02-18T12:00:36.456Z,7.27
2019-02-18T12:03:11.600Z,5.20
2019-02-18T12:05:33.765Z,6.53
2019-02-18T12:08:01.829Z,6.17
2019-02-18T12:10:29.417Z,4.57
2019-02-18T12:12:56.961Z,5.70
2019-02-18T12:15:24.704Z,5.20
2019-02-18T12:17:52.504Z,4.73
2019-02-18T12:20:20.122Z,6.43
2019-02-18T12:22:47.871Z,7.50
2019-02-18T12:25:15.526Z,17.50
2019-02-18T12:27:43.424Z,6.73
2019-02-18T12:30:11.711Z,5.67
2019-02-18T12:32:39.396Z,6.03
2019-02-18T12:35:07.154Z,4.13
2019-02-18T12:37:34.931Z,8.20
2019-02-18T12:40:02.839Z,4.93
2019-02-18T12:42:31.643Z,6.37
2019-02-18T12:44:59.304Z,4.97
2019-02-18T12:47:26.981Z,5.80
2019-02-18T12:49:54.668Z,8.07
2019-02-18T12:52:22.455Z,10.53
2019-02-18T12:54:50.879Z,4.03
2019-02-18T12:57:18.713Z,4.17
2019-02-18T12:59:46.477Z,6.40
2019-02-18T13:02:14.679Z,5.20
2019-02-18T13:04:42.434Z,7.73
2019-02-18T13:07:10.177Z,4.80
2019-02-18T13:09:37.960Z,4.10
2019-02-18T13:12:05.680Z,5.00
2019-02-18T13:14:33.493Z,6.27
2019-02-18T13:17:01.297Z,4.07
2019-02-18T13:19:29.128Z,4.47
2019-02-18T13:21:57.133Z,5.87
2019-02-18T13:24:24.836Z,6.33
2019-02-18T13:26:52.477Z,5.47
2019-02-18T13:29:20.207Z,11.20
2019-02-18T13:31:47.924Z,8.13
2019-02-18T13:34:15.583Z,5.80
2019-02-18T13:36:43.243Z,6.40
2019-02-18T13:39:11.009Z,6.50
2019-02-18T13:41:38.848Z,5.80
2019-02-18T13:44:06.635Z,5.97
2019-02-18T13:46:34.325Z,5.23
2019-02-18T13:49:02.404Z,5.87
2019-02-18T13:51:30.216Z,5.87
2019-02-18T13:53:58.192Z,7.13
2019-02-18T13:56:25.869Z,7.93
2019-02-18T13:58:53.510Z,11.87
2019-02-18T14:01:21.245Z,7.47
2019-02-18T14:03:48.885Z,4.90
2019-02-18T14:06:16.539Z,8.37
2019-02-18T14:08:44.191Z,15.97
2019-02-18T14:11:11.869Z,26.07
2019-02-18T14:13:39.540Z,8.53
2019-02-18T14:16:07.320Z,5.73
2019-02-18T14:18:34.944Z,6.30
2019-02-18T14:21:02.990Z,4.97
2019-02-18T14:23:30.791Z,6.73
2019-02-18T14:25:58.627Z,7.23
2019-02-18T14:28:29.827Z,6.23
2019-02-18T14:30:57.972Z,6.47
2019-02-18T14:33:25.812Z,5.63
2019-02-18T14:35:53.440Z,4.77
2019-02-18T14:38:21.527Z,8.57
2019-02-18T14:40:49.173Z,6.63
2019-02-18T14:43:16.936Z,6.60
2019-02-18T14:45:44.681Z,7.97
2019-02-18T14:48:12.715Z,7.97
2019-02-18T14:50:40.440Z,11.87
2019-02-18T14:53:08.635Z,12.50
2019-02-18T14:55:36.273Z,5.50
2019-02-18T14:58:04.172Z,5.53
2019-02-18T15:00:31.923Z,8.50
2019-02-18T15:02:59.795Z,5.83
2019-02-18T15:05:27.840Z,3.80
2019-02-18T15:07:55.761Z,4.97
2019-02-18T15:10:23.512Z,7.83
2019-02-18T15:12:51.353Z,8.20
2019-02-18T15:15:19.384Z,7.10
2019-02-18T15:17:47.219Z,8.67
2019-02-18T15:20:14.914Z,7.43
2019-02-18T15:22:43.825Z,5.87
2019-02-18T15:25:11.636Z,6.97
2019-02-18T15:27:40.352Z,5.37
2019-02-18T15:30:08.948Z,5.63
2019-02-18T15:32:36.728Z,5.17
2019-02-18T15:35:04.594Z,6.70
2019-02-18T15:37:32.568Z,5.30
2019-02-18T15:40:00.302Z,6.07
2019-02-18T15:42:28.081Z,8.23
2019-02-18T15:44:55.810Z,5.20
2019-02-18T15:47:23.547Z,7.07
2019-02-18T15:49:51.376Z,8.53
2019-02-18T15:52:19.148Z,7.53
2019-02-18T15:54:47.340Z,10.23
2019-02-18T15:57:15.036Z,13.80
2019-02-18T15:59:42.659Z,10.17
2019-02-18T16:02:10.386Z,11.07
2019-02-18T16:04:38.087Z,8.23
2019-02-18T16:07:05.808Z,9.67
2019-02-18T16:09:33.462Z,8.93
2019-02-18T16:12:01.872Z,9.73
2019-02-18T16:14:29.553Z,10.70
2019-02-18T16:16:57.221Z,9.20
2019-02-18T16:19:24.890Z,7.43
2019-02-18T16:21:52.661Z,7.47
2019-02-18T16:24:20.418Z,9.50
2019-02-18T16:26:48.217Z,13.87
2019-02-18T16:29:16.163Z,19.97
2019-02-18T16:31:43.836Z,20.57
2019-02-18T16:34:11.860Z,10.43
2019-02-18T16:36:39.617Z,12.13
2019-02-18T16:39:07.858Z,14.87
2019-02-18T16:41:36.333Z,15.43
2019-02-18T16:44:04.030Z,10.20
2019-02-18T16:46:33.155Z,16.70
2019-02-18T16:49:01.678Z,8.93
2019-02-18T16:51:29.501Z,18.40
2019-02-18T16:53:57.316Z,11.17
2019-02-18T16:56:25.025Z,8.30
2019-02-18T16:58:52.702Z,11.60
2019-02-18T17:01:20.568Z,6.37
2019-02-18T17:03:48.322Z,14.07
2019-02-18T17:06:16.509Z,14.77
2019-02-18T17:08:44.169Z,8.10
2019-02-18T17:11:11.917Z,9.13
2019-02-18T17:13:39.700Z,8.43
2019-02-18T17:16:07.521Z,10.00
2019-02-18T17:18:35.526Z,7.07
2019-02-18T17:21:03.234Z,5.23
2019-02-18T17:23:31.261Z,8.90
2019-02-18T17:25:59.001Z,6.13
2019-02-18T17:28:26.707Z,11.50
2019-02-18T17:30:54.381Z,8.47
2019-02-18T17:33:22.328Z,8.00
2019-02-18T17:35:50.301Z,7.13
2019-02-18T17:38:20.980Z,7.50
2019-02-18T17:40:48.622Z,7.53
2019-02-18T17:43:16.712Z,5.03
2019-02-18T17:45:44.496Z,6.10
2019-02-18T17:48:12.130Z,5.30
2019-02-18T17:50:39.849Z,7.30
2019-02-18T17:53:08.514Z,6.93
2019-02-18T17:55:36.396Z,5.97
2019-02-18T17:58:05.089Z,7.07
2019-02-18T18:00:33.578Z,6.00
2019-02-18T18:03:01.269Z,6.30
2019-02-18T18:05:28.982Z,7.53
2019-02-18T18:07:57.198Z,6.00
2019-02-18T18:10:24.975Z,5.90
2019-02-18T18:12:53.103Z,6.77
2019-02-18T18:15:20.780Z,6.13
2019-02-18T18:17:48.529Z,10.53
2019-02-18T18:20:16.331Z,6.17
2019-02-18T18:22:44.279Z,6.10
2019-02-18T18:25:12.437Z,6.27
2019-02-18T18:27:40.229Z,5.00
2019-02-18T18:30:09.524Z,5.70
2019-02-18T18:32:37.167Z,6.20
2019-02-18T18:35:05.370Z,6.13
2019-02-18T18:37:34.317Z,6.97
2019-02-18T18:40:02.253Z,6.37
2019-02-18T18:42:31.381Z,6.43
2019-02-18T18:44:59.194Z,10.90
2019-02-18T18:47:26.881Z,8.63
2019-02-18T18:49:54.538Z,10.97
2019-02-18T18:52:22.225Z,6.27
2019-02-18T18:54:50.039Z,5.97
2019-02-18T18:57:18.168Z,6.90
2019-02-18T18:59:45.853Z,9.83
2019-02-18T19:02:13.587Z,9.60
2019-02-18T19:04:41.252Z,4.77
2019-02-18T19:07:08.960Z,7.63
2019-02-18T19:09:36.692Z,7.93
2019-02-18T19:12:04.366Z,9.77
2019-02-18T19:14:32.342Z,7.80
2019-02-18T19:17:01.592Z,4.93
2019-02-18T19:19:29.378Z,8.37
2019-02-18T19:21:57.155Z,5.37
2019-02-18T19:24:24.797Z,7.83
2019-02-18T19:26:52.478Z,5.40
2019-02-18T19:29:20.536Z,7.37
2019-02-18T19:31:48.224Z,12.10
2019-02-18T19:34:17.583Z,8.17
2019-02-18T19:36:45.393Z,8.53
2019-02-18T19:39:13.093Z,9.47
2019-02-18T19:41:40.806Z,8.80
2019-02-18T19:44:08.523Z,7.67
2019-02-18T19:46:36.283Z,6.03
2019-02-18T19:49:03.933Z,6.97
2019-02-18T19:51:31.619Z,8.17
2019-02-18T19:53:59.548Z,7.60
2019-02-18T19:56:27.310Z,7.10
2019-02-18T19:58:56.369Z,5.73
2019-02-18T20:01:26.549Z,6.17
2019-02-18T20:03:54.248Z,4.70
2019-02-18T20:06:22.185Z,7.20
2019-02-18T20:08:49.915Z,7.33
2019-02-18T20:11:19.214Z,9.17
2019-02-18T20:13:46.967Z,9.10
2019-02-18T20:16:15.107Z,6.97
2019-02-18T20:18:43.890Z,7.73
2019-02-18T20:21:11.597Z,9.73
2019-02-18T20:23:39.274Z,10.87
2019-02-18T20:26:06.980Z,8.33
2019-02-18T20:28:34.846Z,10.33
2019-02-18T20:31:02.657Z,11.23
2019-02-18T20:33:31.025Z,9.07
2019-02-18T20:36:00.604Z,11.67
2019-02-18T20:38:30.325Z,11.33
2019-02-18T20:40:59.285Z,12.37
2019-02-18T20:43:26.958Z,12.33
2019-02-18T20:45:54.785Z,10.17
2019-02-18T20:48:22.915Z,12.43
2019-02-18T20:50:50.602Z,13.17
2019-02-18T20:53:19.205Z,14.37
2019-02-18T20:55:48.208Z,11.20
2019-02-18T20:58:15.917Z,11.97
2019-02-18T21:00:43.781Z,12.17
2019-02-18T21:03:11.657Z,13.00
2019-02-18T21:05:39.367Z,10.63
2019-02-18T21:08:07.133Z,13.97
2019-02-18T21:10:34.913Z,11.00
2019-02-18T21:13:02.661Z,10.30
2019-02-18T21:15:30.340Z,12.07
2019-02-18T21:17:59.238Z,12.53
2019-02-18T21:20:27.341Z,12.83
2019-02-18T21:22:55.036Z,10.37
2019-02-18T21:25:22.735Z,13.00
2019-02-18T21:27:50.397Z,12.93
2019-02-18T21:30:18.182Z,12.17
2019-02-18T21:32:45.964Z,12.43
2019-02-18T21:35:14.677Z,9.93
2019-02-18T21:37:42.756Z,10.10
2019-02-18T21:40:10.485Z,11.10
2019-02-18T21:42:38.225Z,13.30
2019-02-18T21:45:06.507Z,16.60
2019-02-18T21:47:34.161Z,20.80
2019-02-18T21:50:01.853Z,13.23
2019-02-18T21:52:29.631Z,12.73
2019-02-18T21:54:57.656Z,16.37
2019-02-18T21:57:25.393Z,13.77
2019-02-18T21:59:53.057Z,14.03
2019-02-18T22:02:20.726Z,10.27
2019-02-18T22:04:48.461Z,12.37
2019-02-18T22:07:16.151Z,11.63
2019-02-18T22:09:44.014Z,13.17
2019-02-18T22:12:12.004Z,11.73
2019-02-18T22:14:39.705Z,14.73
2019-02-18T22:17:07.392Z,13.77
2019-02-18T22:19:35.031Z,15.37
2019-02-18T22:22:02.833Z,15.27
2019-02-18T22:24:30.643Z,15.47
2019-02-18T22:26:58.354Z,16.23
2019-02-18T22:29:26.528Z,14.50
2019-02-18T22:31:54.238Z,16.00
2019-02-18T22:34:21.926Z,11.90
2019-02-18T22:36:49.652Z,12.70
2019-02-18T22:39:17.310Z,14.50
2019-02-18T22:41:44.972Z,13.03
2019-02-18T22:44:12.700Z,14.37
2019-02-18T22:46:40.396Z,16.63
2019-02-18T22:49:08.389Z,14.77
2019-02-18T22:51:36.136Z,15.00
2019-02-18T22:54:03.812Z,13.97
2019-02-18T22:56:31.493Z,14.97
2019-02-18T22:58:59.166Z,16.00
2019-02-18T23:01:27.078Z,16.03
2019-02-18T23:03:54.919Z,12.13
2019-02-18T23:06:22.923Z,14.17
2019-02-18T23:08:50.533Z,13.10
2019-02-18T23:11:18.211Z,13.73
2019-02-18T23:13:45.864Z,13.60
2019-02-18T23:16:13.533Z,13.00
2019-02-18T23:18:41.178Z,16.10
2019-02-18T23:21:08.844Z,14.77
2019-02-18T23:23:36.559Z,17.70
2019-02-18T23:26:04.212Z,15.60
2019-02-18T23:28:31.880Z,13.73
2019-02-18T23:30:59.644Z,15.00
2019-02-18T23:33:27.356Z,15.37
2019-02-18T23:35:55.021Z,14.17
2019-02-18T23:38:22.779Z,17.67
2019-02-18T23:40:50.428Z,14.37
2019-02-18T23:43:18.468Z,13.73
2019-02-18T23:45:46.114Z,13.13
2019-02-18T23:48:13.756Z,13.07
2019-02-18T23:50:41.443Z,15.50
2019-02-18T23:53:09.085Z,12.87
2019-02-18T23:55:36.818Z,15.97
2019-02-18T23:58:04.523Z,13.57
